Time;durP1;ratioP1;P1;durP2;ratioP2;P2;SDS_P1;SDS_P2;PMS_P1;PMS_P2;Temp;Humidity;BMP_temperature;BMP_pressure;BME280_temperature;BME280_humidity;BME280_pressure;Samples;Min_cycle;Max_cycle;Signal;HPM_P1;HPM_P2
2022/01/18 00:01:43;;;;;;;10.60;8.40;;;3.60;99.90;;;;;;5114099;28;20514;-57
2022/01/18 00:04:08;;;;;;;10.38;8.18;;;3.60;99.90;;;;;;5113746;28;20176;-57
2022/01/18 00:06:35;;;;;;;12.80;8.20;;;3.60;99.90;;;;;;5113902;28;20180;-58
2022/01/18 00:09:01;;;;;;;15.85;8.50;;;3.60;99.90;;;;;;5113974;28;20472;-57
2022/01/18 00:11:33;;;;;;;16.63;7.95;;;3.50;99.90;;;;;;5113724;28;20204;-57
2022/01/18 00:14:07;;;;;;;20.50;8.52;;;3.50;99.90;;;;;;5114172;28;20180;-58
2022/01/18 00:16:50;;;;;;;18.23;7.67;;;3.40;99.90;;;;;;5112278;28;20221;-59
2022/01/18 00:19:15;;;;;;;12.13;8.02;;;3.40;99.90;;;;;;5113924;28;20514;-57
2022/01/18 00:22:06;;;;;;;12.30;8.18;;;3.40;99.90;;;;;;5113842;28;20184;-57
2022/01/18 00:24:31;;;;;;;9.80;7.38;;;3.30;99.90;;;;;;5113511;28;20629;-57
2022/01/18 00:26:57;;;;;;;15.60;8.10;;;3.30;99.90;;;;;;5113781;28;20180;-57
2022/01/18 00:29:25;;;;;;;19.92;8.52;;;3.30;99.90;;;;;;5113824;28;20515;-57
2022/01/18 00:34:23;;;;;;;9.05;7.80;;;3.30;99.90;;;;;;5113765;28;20622;-57
2022/01/18 00:36:54;;;;;;;8.20;7.40;;;3.30;99.90;;;;;;5112499;28;20590;-57
2022/01/18 00:39:19;;;;;;;10.83;7.90;;;3.20;99.90;;;;;;5113716;28;20165;-57
2022/01/18 00:41:45;;;;;;;22.20;9.57;;;3.20;99.90;;;;;;5113713;28;20256;-57
2022/01/18 00:44:11;;;;;;;15.27;7.95;;;3.20;99.90;;;;;;5113706;28;20514;-57
2022/01/18 00:46:39;;;;;;;13.05;8.57;;;3.20;99.90;;;;;;5113727;28;20176;-57
2022/01/18 00:49:05;;;;;;;12.45;8.52;;;3.20;99.90;;;;;;5112534;28;20528;-57
2022/01/18 00:51:39;;;;;;;8.25;7.38;;;3.10;99.90;;;;;;5112157;28;20604;-57
2022/01/18 00:54:10;;;;;;;9.82;7.47;;;3.10;99.90;;;;;;5113630;28;20168;-57
2022/01/18 00:56:40;;;;;;;8.40;7.60;;;3.10;99.90;;;;;;5113458;28;20173;-57
2022/01/18 00:59:07;;;;;;;7.15;6.50;;;3.00;99.90;;;;;;5113790;28;20181;-57
2022/01/18 01:01:34;;;;;;;9.23;7.03;;;2.80;99.90;;;;;;5113493;28;20173;-57
2022/01/18 01:04:02;;;;;;;8.50;7.63;;;2.90;99.90;;;;;;5113480;28;20237;-57
2022/01/18 01:06:29;;;;;;;8.67;7.73;;;2.90;99.90;;;;;;5113681;28;20275;-58
2022/01/18 01:08:55;;;;;;;9.00;8.10;;;2.90;99.90;;;;;;5113155;28;20638;-57
2022/01/18 01:11:21;;;;;;;16.13;8.77;;;3.00;99.90;;;;;;5095188;28;20183;-57
2022/01/18 01:13:49;;;;;;;16.97;8.20;;;2.90;99.90;;;;;;5112172;28;20624;-57
2022/01/18 01:16:48;;;;;;;9.67;7.73;;;3.00;99.90;;;;;;5115873;28;20200;-57
2022/01/18 01:43:38;;;;;;;17.67;10.55;;;3.00;99.90;;;;;;5116489;28;20667;-57
2022/01/18 01:46:04;;;;;;;17.55;10.38;;;3.00;99.90;;;;;;5115339;28;20181;-56
2022/01/18 01:48:30;;;;;;;16.58;10.55;;;3.00;99.90;;;;;;5116512;28;20181;-56
2022/01/18 01:51:04;;;;;;;12.88;10.77;;;3.00;99.90;;;;;;5115251;28;20184;-57
2022/01/18 01:53:32;;;;;;;21.20;12.23;;;3.10;99.90;;;;;;5116458;28;20291;-56
2022/01/18 01:55:58;;;;;;;19.47;13.13;;;3.10;99.90;;;;;;5116335;28;20262;-59
2022/01/18 01:58:26;;;;;;;22.77;12.90;;;3.10;99.90;;;;;;5114881;28;20174;-56
2022/01/18 02:00:57;;;;;;;13.48;11.40;;;3.10;99.90;;;;;;5116241;28;20648;-57
2022/01/18 02:03:24;;;;;;;31.55;13.32;;;3.10;99.90;;;;;;5115099;28;20525;-56
2022/01/18 02:05:50;;;;;;;32.25;16.80;;;3.20;99.90;;;;;;5114923;28;20194;-56
2022/01/18 02:08:16;;;;;;;25.85;15.38;;;3.10;99.90;;;;;;5116095;28;20195;-56
2022/01/18 02:10:43;;;;;;;20.57;12.93;;;2.90;99.90;;;;;;5116455;28;20177;-59
2022/01/18 02:13:13;;;;;;;17.33;12.60;;;2.90;99.90;;;;;;5115903;28;20569;-59
2022/01/18 02:15:47;;;;;;;23.93;12.23;;;2.90;99.90;;;;;;5116124;28;20230;-56
2022/01/18 02:23:42;;;;;;;17.40;13.45;;;2.90;99.90;;;;;;5115888;28;20580;-59
2022/01/18 02:26:07;;;;;;;12.00;10.67;;;2.90;99.90;;;;;;5115729;28;20177;-56
2022/01/18 02:28:33;;;;;;;10.88;9.75;;;2.90;99.90;;;;;;5115728;28;20184;-58
2022/01/18 02:30:59;;;;;;;16.23;13.45;;;2.90;99.90;;;;;;5114545;28;20641;-58
2022/01/18 02:33:24;;;;;;;13.43;10.67;;;3.00;99.90;;;;;;5114422;28;20562;-58
2022/01/18 02:35:51;;;;;;;18.13;12.30;;;3.10;99.90;;;;;;5114188;28;20263;-56
2022/01/18 02:38:17;;;;;;;17.00;12.50;;;3.10;99.90;;;;;;5115603;28;20180;-58
2022/01/18 02:40:43;;;;;;;12.13;10.93;;;3.20;99.90;;;;;;5115171;28;20180;-58
2022/01/18 02:45:56;;;;;;;16.33;12.13;;;3.20;99.90;;;;;;5114443;28;20182;-58
2022/01/18 02:48:23;;;;;;;15.60;11.43;;;3.20;99.90;;;;;;5114426;28;20698;-57
2022/01/18 02:50:49;;;;;;;11.98;10.77;;;3.20;99.90;;;;;;5115625;28;20294;-57
2022/01/18 02:53:16;;;;;;;24.95;13.43;;;3.20;99.90;;;;;;5114029;28;20200;-57
2022/01/18 02:55:43;;;;;;;24.00;14.55;;;3.20;99.90;;;;;;5115477;28;20261;-57
2022/01/18 02:58:10;;;;;;;12.85;11.35;;;3.30;99.90;;;;;;5115212;28;20173;-57
2022/01/18 03:03:24;;;;;;;10.60;9.60;;;3.40;99.90;;;;;;5117619;28;20530;-57
2022/01/18 03:05:50;;;;;;;25.10;13.27;;;3.40;99.90;;;;;;5117170;28;20721;-57
2022/01/18 03:08:17;;;;;;;10.13;9.23;;;3.40;99.90;;;;;;5114696;28;20260;-57
2022/01/18 03:10:43;;;;;;;29.25;12.02;;;3.50;99.90;;;;;;5114966;28;20173;-57
2022/01/18 03:13:09;;;;;;;17.85;11.32;;;3.50;99.90;;;;;;5113289;28;20213;-57
2022/01/18 03:15:35;;;;;;;19.70;12.05;;;3.50;99.90;;;;;;5114958;28;20177;-57
2022/01/18 03:18:03;;;;;;;18.42;10.98;;;3.60;99.90;;;;;;5114799;28;20192;-57
2022/01/18 03:20:30;;;;;;;23.27;13.60;;;3.60;99.90;;;;;;5113307;28;20614;-57
2022/01/18 03:22:56;;;;;;;12.73;9.63;;;3.60;99.90;;;;;;5113454;28;20507;-57
2022/01/18 03:28:04;;;;;;;10.73;9.53;;;3.50;99.90;;;;;;5114630;28;20267;-57
2022/01/18 03:30:32;;;;;;;13.80;11.25;;;3.40;99.90;;;;;;5113213;28;20572;-57
2022/01/18 03:32:58;;;;;;;15.67;11.60;;;3.50;99.90;;;;;;5114410;28;20207;-57
2022/01/18 03:35:24;;;;;;;20.90;13.00;;;3.40;99.90;;;;;;5114217;28;20267;-58
2022/01/18 03:37:51;;;;;;;14.45;10.50;;;3.50;99.90;;;;;;5113209;28;20267;-57
2022/01/18 03:40:16;;;;;;;14.80;10.40;;;3.50;99.90;;;;;;5114122;28;20634;-57
2022/01/18 03:42:45;;;;;;;30.85;14.52;;;3.50;99.90;;;;;;5114176;28;20212;-57
2022/01/18 03:45:16;;;;;;;18.13;11.57;;;3.40;99.90;;;;;;5113933;28;20542;-57
2022/01/18 03:47:43;;;;;;;10.55;9.55;;;3.40;99.90;;;;;;5112925;28;20192;-57
2022/01/18 03:50:11;;;;;;;13.50;10.70;;;3.40;99.90;;;;;;5114231;28;20630;-57
2022/01/18 03:52:37;;;;;;;16.08;11.65;;;3.50;99.90;;;;;;5114081;27;20675;-57
2022/01/18 03:55:04;;;;;;;11.80;10.60;;;3.50;99.90;;;;;;5114144;27;20203;-57
2022/01/18 03:57:29;;;;;;;18.57;12.70;;;3.50;99.90;;;;;;5113904;28;20263;-57
2022/01/18 03:59:55;;;;;;;22.30;15.18;;;3.50;99.90;;;;;;5114119;28;20264;-57
2022/01/18 04:02:21;;;;;;;12.20;9.98;;;3.50;99.90;;;;;;5114131;27;20191;-57
2022/01/18 04:04:47;;;;;;;14.70;11.27;;;3.50;99.90;;;;;;5114066;28;20556;-57
2022/01/18 04:07:13;;;;;;;11.60;10.50;;;3.50;99.90;;;;;;5113794;28;20541;-57
2022/01/18 04:09:39;;;;;;;12.70;11.40;;;3.60;99.90;;;;;;5113744;28;20189;-57
2022/01/18 04:12:05;;;;;;;19.88;12.77;;;3.60;99.90;;;;;;5112784;28;20204;-57
2022/01/18 04:14:31;;;;;;;14.73;11.13;;;3.60;99.90;;;;;;5112933;28;20214;-57
2022/01/18 04:17:32;;;;;;;15.87;12.77;;;3.40;99.90;;;;;;5113676;28;20550;-57
2022/01/18 04:30:54;;;;;;;22.13;14.18;;;3.50;99.90;;;;;;5113819;28;20214;-57
2022/01/18 04:33:20;;;;;;;18.25;11.60;;;3.40;99.90;;;;;;5113661;28;20538;-57
2022/01/18 04:35:46;;;;;;;25.05;12.45;;;3.50;99.90;;;;;;5112136;28;20185;-57
2022/01/18 04:38:12;;;;;;;11.95;10.45;;;3.60;99.90;;;;;;5113726;28;20170;-57
2022/01/18 04:40:41;;;;;;;14.03;11.63;;;3.60;99.90;;;;;;5113730;28;20542;-57
2022/01/18 04:48:29;;;;;;;17.42;11.95;;;3.80;99.90;;;;;;5115823;28;20638;-57
2022/01/18 04:51:15;;;;;;;17.10;11.77;;;3.70;99.90;;;;;;5114875;28;20253;-57
2022/01/18 04:53:50;;;;;;;19.20;12.13;;;3.70;99.90;;;;;;5115682;28;20587;-57
2022/01/18 04:56:18;;;;;;;20.08;11.15;;;3.80;99.90;;;;;;5112089;28;20164;-57
2022/01/18 04:58:44;;;;;;;18.35;11.88;;;3.80;99.90;;;;;;5117023;28;20172;-58
2022/01/18 05:01:11;;;;;;;21.90;12.27;;;3.70;99.90;;;;;;5117150;28;20180;-57
2022/01/18 05:03:37;;;;;;;29.77;14.37;;;3.80;99.90;;;;;;5117160;28;20215;-57
2022/01/18 05:06:09;;;;;;;15.82;11.20;;;3.80;99.90;;;;;;5117078;28;20216;-57
2022/01/18 05:08:38;;;;;;;17.03;11.63;;;3.80;99.90;;;;;;5117315;28;20243;-57
2022/01/18 05:11:06;;;;;;;19.98;11.38;;;3.80;99.90;;;;;;5117232;28;20176;-57
2022/01/18 05:16:18;;;;;;;18.90;10.98;;;3.80;99.90;;;;;;5116915;28;20197;-57
2022/01/18 05:19:04;;;;;;;18.52;12.57;;;3.80;99.90;;;;;;5116803;28;20192;-57
2022/01/18 05:24:17;;;;;;;15.57;11.25;;;3.90;99.90;;;;;;5115765;28;20642;-57
2022/01/18 05:26:43;;;;;;;17.45;12.30;;;4.00;99.90;;;;;;5115791;28;20234;-57
2022/01/18 05:29:08;;;;;;;17.88;12.50;;;4.00;99.90;;;;;;5115731;28;20184;-57
2022/01/18 05:31:34;;;;;;;14.95;12.23;;;4.00;99.90;;;;;;5116763;28;20177;-57
2022/01/18 05:34:00;;;;;;;14.98;12.57;;;4.00;99.90;;;;;;5116552;28;20185;-57
2022/01/18 05:36:25;;;;;;;19.45;12.82;;;4.10;99.90;;;;;;5115977;28;20185;-57
2022/01/18 05:38:51;;;;;;;24.42;13.15;;;4.10;99.90;;;;;;5115409;28;20188;-57
2022/01/18 05:41:17;;;;;;;14.88;11.15;;;4.00;99.90;;;;;;5116727;28;20176;-57
2022/01/18 05:43:43;;;;;;;15.75;11.90;;;4.00;99.90;;;;;;5115116;28;20245;-57
2022/01/18 05:46:08;;;;;;;27.15;13.18;;;4.00;99.90;;;;;;5116506;28;20184;-57
2022/01/18 05:48:34;;;;;;;15.48;11.82;;;3.80;99.90;;;;;;5116547;28;20180;-57
2022/01/18 05:51:00;;;;;;;25.08;12.48;;;3.90;99.90;;;;;;5116512;28;20579;-57
2022/01/18 05:53:27;;;;;;;14.82;11.93;;;3.90;99.90;;;;;;5116433;28;20549;-58
2022/01/18 05:55:53;;;;;;;15.30;10.70;;;4.00;99.90;;;;;;5116160;28;20652;-58
2022/01/18 05:58:19;;;;;;;14.82;11.38;;;3.90;99.90;;;;;;5116342;28;20175;-58
2022/01/18 06:00:52;;;;;;;17.40;12.27;;;3.90;99.90;;;;;;5116263;28;20209;-52
2022/01/18 06:03:27;;;;;;;15.73;11.70;;;3.80;99.90;;;;;;5116277;28;20581;-56
2022/01/18 06:08:42;;;;;;;16.73;12.27;;;3.80;99.90;;;;;;5115087;28;20172;-56
2022/01/18 06:11:07;;;;;;;19.15;13.25;;;3.90;99.90;;;;;;5114193;28;20259;-59
2022/01/18 06:13:34;;;;;;;21.25;12.73;;;4.00;99.90;;;;;;5115918;28;20315;-57
2022/01/18 06:16:00;;;;;;;18.55;12.95;;;4.10;99.90;;;;;;5114517;28;20265;-58
2022/01/18 06:18:25;;;;;;;16.92;13.00;;;4.10;99.90;;;;;;5115677;28;20618;-58
2022/01/18 06:20:51;;;;;;;20.98;13.20;;;3.90;99.90;;;;;;5115932;28;20200;-58
2022/01/18 06:23:17;;;;;;;27.23;15.15;;;4.00;99.90;;;;;;5097632;28;20242;-57
2022/01/18 06:25:43;;;;;;;19.35;12.63;;;4.00;99.90;;;;;;5115495;28;20188;-57
2022/01/18 06:28:09;;;;;;;18.77;13.52;;;4.10;99.90;;;;;;5097795;28;20181;-57
2022/01/18 06:30:34;;;;;;;18.23;13.27;;;4.10;99.90;;;;;;5115781;28;20181;-58
2022/01/18 06:33:01;;;;;;;16.00;13.05;;;4.20;99.90;;;;;;5115554;28;20286;-58
2022/01/18 06:35:26;;;;;;;20.38;13.95;;;4.20;99.90;;;;;;5115795;28;20177;-57
2022/01/18 06:37:52;;;;;;;32.10;14.80;;;4.20;99.90;;;;;;5116759;28;20180;-58
2022/01/18 06:40:18;;;;;;;26.00;14.63;;;4.20;99.90;;;;;;5117258;28;20185;-58
2022/01/18 06:42:44;;;;;;;53.08;17.45;;;4.10;99.90;;;;;;5114036;28;20181;-58
2022/01/18 06:45:11;;;;;;;17.77;12.60;;;4.00;99.90;;;;;;5115391;28;20280;-57
2022/01/18 06:47:38;;;;;;;19.70;13.73;;;4.10;99.90;;;;;;5115555;27;20183;-57
2022/01/18 06:50:06;;;;;;;24.35;14.73;;;4.10;99.90;;;;;;5114077;28;20277;-57
2022/01/18 06:52:32;;;;;;;17.15;13.75;;;4.20;99.90;;;;;;5115124;28;20212;-57
2022/01/18 06:54:57;;;;;;;20.85;14.88;;;4.20;99.90;;;;;;5115039;28;20646;-57
2022/01/18 06:57:23;;;;;;;19.50;15.27;;;4.30;99.90;;;;;;5115418;28;20255;-58
2022/01/18 06:59:49;;;;;;;25.92;17.33;;;4.30;99.90;;;;;;5115130;28;20176;-58
2022/01/18 07:02:15;;;;;;;30.38;18.35;;;4.30;99.90;;;;;;5113713;28;20538;-56
2022/01/18 07:04:40;;;;;;;34.67;19.35;;;4.40;99.90;;;;;;5115005;28;20172;-58
2022/01/18 07:07:06;;;;;;;27.77;18.45;;;4.30;99.90;;;;;;5115018;28;20530;-57
2022/01/18 07:09:32;;;;;;;24.08;15.13;;;4.40;99.90;;;;;;5114708;28;20515;-58
2022/01/18 07:11:59;;;;;;;20.27;13.93;;;4.50;99.90;;;;;;5114772;28;20212;-58
2022/01/18 07:14:25;;;;;;;19.25;14.15;;;4.30;99.90;;;;;;5113613;28;20189;-57
2022/01/18 07:16:51;;;;;;;20.08;14.20;;;4.30;99.90;;;;;;5114387;28;20199;-58
2022/01/18 07:19:17;;;;;;;19.00;13.35;;;4.30;99.90;;;;;;5113177;28;20176;-58
2022/01/18 07:21:43;;;;;;;45.00;19.88;;;4.40;99.90;;;;;;5112910;28;20625;-57
2022/01/18 07:24:28;;;;;;;26.27;17.00;;;4.50;99.90;;;;;;5114672;28;20164;-58
2022/01/18 07:26:53;;;;;;;25.15;15.35;;;4.50;99.90;;;;;;5114629;27;20160;-57
2022/01/18 07:29:19;;;;;;;64.70;23.83;;;4.50;99.90;;;;;;5114813;28;20358;-58
2022/01/18 07:31:45;;;;;;;67.60;23.42;;;4.60;99.90;;;;;;5113203;28;20238;-58
2022/01/18 07:34:14;;;;;;;22.08;15.60;;;4.50;99.90;;;;;;5096307;28;20653;-56
2022/01/18 07:36:40;;;;;;;18.45;13.82;;;4.60;99.90;;;;;;5113198;28;20184;-57
2022/01/18 07:39:05;;;;;;;20.40;14.35;;;4.60;99.90;;;;;;5113275;28;20589;-57
2022/01/18 07:41:31;;;;;;;22.40;16.45;;;4.70;99.90;;;;;;5114441;28;20587;-58
2022/01/18 07:43:57;;;;;;;21.92;14.85;;;4.60;99.90;;;;;;5114388;28;20204;-58
2022/01/18 07:46:22;;;;;;;23.63;15.55;;;4.60;99.90;;;;;;5114302;28;20203;-57
2022/01/18 07:48:48;;;;;;;23.15;15.10;;;4.70;99.90;;;;;;5095984;28;20740;-58
2022/01/18 07:51:16;;;;;;;21.90;14.85;;;4.70;99.90;;;;;;5113076;28;20226;-57
2022/01/18 07:53:41;;;;;;;28.52;17.08;;;4.70;99.90;;;;;;5112617;28;20665;-57
2022/01/18 07:56:07;;;;;;;26.42;16.25;;;4.70;99.90;;;;;;5112802;28;20218;-57
2022/01/18 07:58:33;;;;;;;26.65;16.08;;;4.80;99.90;;;;;;5114134;28;20186;-57
2022/01/18 08:01:00;;;;;;;30.92;17.60;;;4.70;99.90;;;;;;5113968;28;20188;-58
2022/01/18 08:03:28;;;;;;;21.33;14.27;;;4.70;99.90;;;;;;5112936;28;20184;-58
2022/01/18 08:05:54;;;;;;;27.85;14.95;;;4.80;99.90;;;;;;5112790;28;20264;-57
2022/01/18 08:08:20;;;;;;;40.88;18.27;;;4.80;99.90;;;;;;5112847;28;20216;-58
2022/01/18 08:10:45;;;;;;;26.15;15.38;;;4.70;99.90;;;;;;5112883;28;20199;-58
2022/01/18 08:13:11;;;;;;;29.42;17.17;;;4.70;99.90;;;;;;5112367;28;20706;-58
2022/01/18 08:15:38;;;;;;;24.90;15.38;;;4.70;99.90;;;;;;5113913;28;20181;-58
2022/01/18 08:18:11;;;;;;;52.22;19.13;;;4.70;99.90;;;;;;5114125;28;20605;-57
2022/01/18 08:20:37;;;;;;;34.78;17.08;;;4.70;99.90;;;;;;5114214;28;20176;-57
2022/01/18 08:23:03;;;;;;;29.20;16.75;;;4.80;99.90;;;;;;5116773;28;20770;-58
2022/01/18 08:25:30;;;;;;;23.70;15.48;;;4.70;99.90;;;;;;5116614;28;20172;-57
2022/01/18 08:27:56;;;;;;;29.23;15.88;;;4.80;99.90;;;;;;5113817;28;20180;-58
2022/01/18 08:30:21;;;;;;;28.27;16.30;;;4.80;99.90;;;;;;5113570;28;20176;-59
2022/01/18 08:32:49;;;;;;;27.70;16.38;;;4.80;99.90;;;;;;5117544;28;20204;-57
2022/01/18 08:35:15;;;;;;;30.65;15.20;;;4.90;99.90;;;;;;5116748;28;20367;-56
2022/01/18 08:37:41;;;;;;;22.50;15.27;;;4.90;99.90;;;;;;5117669;28;20169;-58
2022/01/18 08:40:08;;;;;;;27.38;16.63;;;4.80;99.90;;;;;;5117753;28;20176;-58
2022/01/18 08:42:34;;;;;;;61.53;20.63;;;4.80;99.90;;;;;;5116897;28;20188;-57
2022/01/18 08:45:00;;;;;;;27.98;16.08;;;4.80;99.90;;;;;;5117799;28;20204;-57
2022/01/18 08:47:26;;;;;;;33.22;21.77;;;4.90;99.90;;;;;;5116382;28;20287;-56
2022/01/18 08:49:52;;;;;;;31.05;20.13;;;5.00;99.90;;;;;;5117289;28;20271;-56
2022/01/18 08:52:18;;;;;;;70.13;26.88;;;5.10;99.90;;;;;;5116280;28;20233;-56
2022/01/18 08:54:44;;;;;;;35.65;18.23;;;5.20;99.90;;;;;;5117590;28;20187;-57
2022/01/18 08:57:11;;;;;;;28.27;16.02;;;5.30;99.90;;;;;;5116330;28;20177;-57
2022/01/18 08:59:39;;;;;;;32.22;16.67;;;5.30;99.90;;;;;;5117552;28;20170;-57
2022/01/18 09:02:06;;;;;;;35.42;16.98;;;5.40;99.90;;;;;;5117429;28;20183;-56
2022/01/18 09:04:33;;;;;;;29.10;16.75;;;5.40;99.90;;;;;;5117373;28;20216;-57
2022/01/18 09:07:03;;;;;;;34.38;15.82;;;5.50;99.90;;;;;;5117347;28;20672;-57
2022/01/18 09:09:29;;;;;;;26.42;14.93;;;5.50;99.90;;;;;;5115961;28;20204;-57
2022/01/18 09:11:55;;;;;;;52.67;18.50;;;5.40;99.90;;;;;;5117212;28;20229;-57
2022/01/18 09:14:20;;;;;;;27.75;15.07;;;5.60;99.90;;;;;;5117209;28;20227;-57
2022/01/18 09:16:46;;;;;;;29.50;14.13;;;5.60;99.90;;;;;;5117055;28;20189;-57
2022/01/18 09:19:12;;;;;;;29.92;15.15;;;5.70;99.90;;;;;;5117113;28;20173;-57
2022/01/18 09:21:38;;;;;;;29.52;14.00;;;5.80;99.90;;;;;;5117059;28;20176;-56
2022/01/18 09:24:04;;;;;;;29.50;14.60;;;5.80;99.90;;;;;;5117003;28;20259;-56
2022/01/18 09:26:30;;;;;;;29.90;16.05;;;5.80;99.90;;;;;;5115906;28;20184;-56
2022/01/18 09:28:55;;;;;;;37.30;18.92;;;5.90;99.90;;;;;;5116015;28;20173;-56
2022/01/18 09:31:21;;;;;;;39.90;21.27;;;6.00;99.90;;;;;;5115740;28;20195;-57
2022/01/18 09:33:47;;;;;;;40.60;22.83;;;6.00;99.90;;;;;;5116760;28;20195;-56
2022/01/18 09:36:13;;;;;;;42.15;23.90;;;6.10;99.90;;;;;;5116485;28;20658;-56
2022/01/18 09:38:39;;;;;;;39.33;21.45;;;6.10;99.90;;;;;;5116444;28;20541;-57
2022/01/18 09:41:10;;;;;;;36.53;20.52;;;6.10;99.90;;;;;;5116670;28;20196;-56
2022/01/18 09:43:38;;;;;;;33.33;17.98;;;6.10;99.90;;;;;;5115853;28;20171;-55
2022/01/18 09:46:05;;;;;;;31.55;18.27;;;6.10;99.90;;;;;;5116604;28;20278;-56
2022/01/18 09:48:31;;;;;;;37.08;19.83;;;6.10;99.90;;;;;;5115352;28;20203;-57
2022/01/18 09:51:01;;;;;;;46.90;19.23;;;6.10;99.90;;;;;;5116251;28;20587;-57
2022/01/18 09:53:27;;;;;;;60.03;20.92;;;6.10;99.90;;;;;;5116136;28;20207;-56
2022/01/18 09:55:53;;;;;;;35.13;18.20;;;6.10;99.90;;;;;;5116418;28;20191;-56
2022/01/18 09:58:20;;;;;;;40.25;18.08;;;6.20;99.90;;;;;;5115073;28;20176;-56
2022/01/18 10:00:46;;;;;;;35.15;17.98;;;6.20;99.90;;;;;;5116228;28;20180;-58
2022/01/18 10:03:28;;;;;;;30.13;15.65;;;6.30;99.90;;;;;;5116234;28;20621;-57
2022/01/18 10:05:55;;;;;;;33.78;17.02;;;6.30;99.90;;;;;;5116291;28;20168;-56
2022/01/18 10:08:22;;;;;;;30.92;19.58;;;6.30;99.90;;;;;;5116460;28;20186;-57
2022/01/18 10:10:53;;;;;;;43.35;22.88;;;6.30;99.90;;;;;;5116593;28;20176;-57
2022/01/18 10:13:22;;;;;;;34.67;18.08;;;6.40;99.90;;;;;;5117141;28;20203;-57
2022/01/18 10:16:05;;;;;;;46.40;19.90;;;6.40;99.90;;;;;;5114733;28;20314;-57
2022/01/18 10:18:34;;;;;;;29.75;15.25;;;6.40;99.90;;;;;;5116017;28;20176;-56
2022/01/18 10:21:00;;;;;;;41.08;18.35;;;6.40;99.90;;;;;;5115893;28;20205;-57
2022/01/18 10:23:26;;;;;;;44.15;18.00;;;6.50;99.90;;;;;;5115850;28;20261;-57
2022/01/18 10:25:53;;;;;;;45.67;19.42;;;6.50;99.90;;;;;;5115848;28;20169;-56
2022/01/18 10:28:28;;;;;;;38.63;17.35;;;6.60;99.90;;;;;;5114658;28;20187;-55
2022/01/18 10:30:55;;;;;;;41.85;19.00;;;6.60;99.90;;;;;;5115328;28;20183;-56
2022/01/18 10:33:27;;;;;;;41.92;18.25;;;6.60;99.90;;;;;;5115591;28;20212;-57
2022/01/18 10:36:12;;;;;;;42.33;18.77;;;6.60;99.90;;;;;;5115409;28;20173;-56
2022/01/18 10:38:50;;;;;;;48.72;19.42;;;6.70;99.90;;;;;;5115492;28;20179;-58
2022/01/18 10:41:24;;;;;;;41.58;19.48;;;6.80;99.90;;;;;;5115632;28;20160;-58
2022/01/18 10:44:14;;;;;;;38.95;18.92;;;6.90;99.90;;;;;;5114128;28;20185;-56
2022/01/18 10:46:44;;;;;;;39.55;18.92;;;6.90;99.90;;;;;;5115252;28;20177;-55
2022/01/18 10:49:24;;;;;;;42.88;20.15;;;7.00;99.90;;;;;;5115387;28;20740;-56
2022/01/18 10:52:06;;;;;;;34.38;18.27;;;7.10;99.90;;;;;;5115017;28;20259;-59
2022/01/18 10:54:44;;;;;;;35.70;17.20;;;7.20;99.90;;;;;;5114457;28;20168;-56
2022/01/18 10:57:12;;;;;;;35.60;16.48;;;7.20;99.90;;;;;;5115305;28;20187;-56
2022/01/18 10:59:39;;;;;;;35.33;16.63;;;7.20;99.90;;;;;;5113970;28;20255;-56
2022/01/18 11:02:20;;;;;;;41.67;18.10;;;7.20;99.90;;;;;;5115112;28;20177;-55
2022/01/18 11:04:55;;;;;;;43.92;19.63;;;7.30;99.90;;;;;;5115179;28;20157;-56
2022/01/18 11:07:23;;;;;;;38.88;19.08;;;7.30;99.90;;;;;;5115000;28;20200;-56
2022/01/18 11:09:50;;;;;;;39.03;18.45;;;7.40;99.90;;;;;;5114709;28;20201;-57
2022/01/18 11:12:19;;;;;;;32.42;17.52;;;7.40;99.90;;;;;;5114853;28;20197;-56
2022/01/18 11:14:47;;;;;;;39.35;19.27;;;7.50;99.90;;;;;;5113620;28;20181;-56
2022/01/18 11:17:39;;;;;;;38.15;19.85;;;7.60;99.90;;;;;;5114590;28;20258;-56
2022/01/18 11:20:04;;;;;;;36.88;22.42;;;7.60;99.90;;;;;;5114342;28;20177;-56
2022/01/18 11:22:30;;;;;;;39.72;20.25;;;7.70;99.90;;;;;;5113466;28;20243;-58
2022/01/18 11:24:59;;;;;;;39.45;19.60;;;7.70;99.90;;;;;;5096241;28;20217;-56
2022/01/18 11:27:28;;;;;;;32.97;19.30;;;7.70;99.90;;;;;;5114610;28;20169;-58
2022/01/18 11:29:54;;;;;;;29.60;19.75;;;7.80;99.90;;;;;;5114559;28;20614;-55
2022/01/18 11:32:23;;;;;;;31.48;19.00;;;7.80;99.90;;;;;;5113323;28;20197;-58
2022/01/18 11:35:00;;;;;;;28.80;19.42;;;7.80;99.90;;;;;;5114265;28;20173;-58
2022/01/18 11:37:28;;;;;;;30.50;18.98;;;7.70;99.90;;;;;;5114514;28;20158;-58
2022/01/18 11:40:15;;;;;;;33.40;19.23;;;7.80;99.90;;;;;;5114433;28;20503;-58
2022/01/18 11:42:52;;;;;;;34.55;19.33;;;7.80;99.90;;;;;;5114456;28;20237;-58
2022/01/18 11:45:24;;;;;;;34.47;18.65;;;7.90;99.90;;;;;;5114366;28;20213;-57
2022/01/18 11:48:12;;;;;;;40.95;20.55;;;7.90;99.90;;;;;;5113908;28;20184;-58
2022/01/18 11:50:44;;;;;;;31.00;19.08;;;7.80;99.90;;;;;;5113048;28;20518;-59
2022/01/18 11:53:25;;;;;;;32.13;21.70;;;7.80;99.90;;;;;;5114160;28;20614;-58
2022/01/18 11:55:58;;;;;;;31.10;18.40;;;7.80;99.90;;;;;;5114453;28;20177;-59
2022/01/18 11:58:26;;;;;;;31.70;18.85;;;7.80;99.90;;;;;;5114913;28;20176;-57
2022/01/18 12:00:57;;;;;;;34.83;19.15;;;7.80;99.90;;;;;;5113767;28;20638;-58
2022/01/18 12:03:43;;;;;;;33.28;20.08;;;7.90;99.90;;;;;;5112890;28;20166;-58
2022/01/18 12:06:09;;;;;;;35.05;20.85;;;7.90;99.90;;;;;;5113621;28;20179;-57
2022/01/18 12:08:45;;;;;;;42.22;23.30;;;7.90;99.90;;;;;;5113992;28;20206;-57
2022/01/18 12:11:26;;;;;;;31.55;18.33;;;8.00;99.90;;;;;;5114048;28;20243;-58
2022/01/18 12:13:58;;;;;;;29.83;17.65;;;8.00;99.90;;;;;;5113617;28;20250;-57
2022/01/18 12:16:28;;;;;;;27.83;17.05;;;8.00;99.90;;;;;;5113677;28;20190;-58
2022/01/18 12:19:00;;;;;;;28.50;17.92;;;8.00;99.90;;;;;;5113938;28;20515;-57
2022/01/18 12:21:29;;;;;;;30.70;18.83;;;8.10;99.90;;;;;;5113943;28;20169;-58
2022/01/18 12:23:57;;;;;;;27.48;16.70;;;8.10;99.90;;;;;;5113872;28;20169;-58
2022/01/18 12:26:40;;;;;;;31.80;18.48;;;8.10;99.90;;;;;;5113854;28;20174;-58
2022/01/18 12:34:48;;;;;;;30.83;18.00;;;8.10;99.90;;;;;;5113451;28;20532;-57
2022/01/18 12:37:16;;;;;;;30.42;16.02;;;8.20;99.90;;;;;;5109582;28;20731;-57
2022/01/18 12:40:11;;;;;;;26.85;17.33;;;8.10;99.90;;;;;;5113718;28;20642;-57
2022/01/18 12:45:20;;;;;;;28.27;17.05;;;8.20;99.90;;;;;;5113705;28;20209;-57
2022/01/18 12:47:48;;;;;;;31.13;16.85;;;8.10;99.90;;;;;;5113232;28;20189;-57
2022/01/18 12:50:16;;;;;;;24.25;15.10;;;8.20;99.90;;;;;;5113638;28;20212;-57
2022/01/18 12:52:48;;;;;;;26.02;14.88;;;8.20;99.90;;;;;;5113530;28;20216;-57
2022/01/18 12:55:38;;;;;;;27.65;16.23;;;8.20;99.90;;;;;;5113596;28;20222;-57
2022/01/18 12:58:15;;;;;;;25.60;14.32;;;8.30;99.90;;;;;;5113551;28;20173;-57
2022/01/18 13:00:55;;;;;;;25.92;13.65;;;8.20;99.90;;;;;;5113535;28;20264;-57
2022/01/18 13:03:24;;;;;;;22.33;13.07;;;8.20;99.90;;;;;;5113168;28;20533;-57
2022/01/18 13:05:55;;;;;;;19.13;12.45;;;8.30;99.90;;;;;;5113491;28;20525;-56
2022/01/18 13:08:28;;;;;;;17.45;12.15;;;8.20;99.90;;;;;;5113500;28;20161;-58
2022/01/18 13:10:54;;;;;;;17.58;10.80;;;8.30;99.90;;;;;;5113471;28;20236;-56
2022/01/18 13:13:31;;;;;;;15.60;9.88;;;8.30;99.90;;;;;;5113481;28;20229;-57
2022/01/18 13:26:44;;;;;;;17.85;9.85;;;8.40;99.90;;;;;;5115874;28;20186;-56
2022/01/18 13:29:10;;;;;;;20.40;10.82;;;8.40;99.90;;;;;;5116937;28;20173;-56
2022/01/18 13:31:36;;;;;;;17.08;10.35;;;8.50;99.90;;;;;;5116992;28;20161;-56
2022/01/18 13:34:03;;;;;;;17.38;9.65;;;8.60;99.90;;;;;;5116900;28;20196;-56
2022/01/18 13:36:31;;;;;;;17.35;8.68;;;8.80;99.90;;;;;;5116810;28;20562;-57
2022/01/18 13:39:17;;;;;;;17.25;8.63;;;8.80;99.90;;;;;;5116804;28;20181;-57
2022/01/18 13:41:43;;;;;;;14.75;7.07;;;9.00;99.90;;;;;;5116733;28;20176;-56
2022/01/18 13:44:09;;;;;;;13.98;6.75;;;9.20;99.90;;;;;;5117033;28;20170;-57
2022/01/18 13:46:34;;;;;;;13.75;6.88;;;9.40;99.90;;;;;;5116232;28;20178;-57
2022/01/18 13:49:05;;;;;;;13.45;7.20;;;9.40;99.90;;;;;;5118060;28;20177;-57
2022/01/18 13:51:31;;;;;;;12.93;6.57;;;9.40;99.90;;;;;;5116581;28;20189;-57
2022/01/18 13:54:06;;;;;;;13.63;6.38;;;9.40;99.90;;;;;;5116453;28;20243;-57
2022/01/18 13:56:33;;;;;;;12.63;5.95;;;9.40;99.90;;;;;;5116512;28;20185;-56
2022/01/18 13:59:06;;;;;;;13.27;5.45;;;9.40;99.90;;;;;;5115558;28;20173;-57
2022/01/18 14:01:41;;;;;;;13.38;4.68;;;9.50;99.90;;;;;;5116340;28;20169;-57
2022/01/18 14:04:15;;;;;;;9.50;4.57;;;9.50;99.90;;;;;;5116005;28;20522;-55
2022/01/18 14:06:43;;;;;;;16.02;8.32;;;9.40;99.90;;;;;;5116219;28;20559;-56
2022/01/18 14:09:10;;;;;;;18.88;10.57;;;9.50;99.90;;;;;;5114943;28;20173;-57
2022/01/18 14:11:37;;;;;;;16.02;7.80;;;9.50;99.90;;;;;;5116241;28;20206;-57